English version
lugares datos climáticos artículos

datos de Mairena del Aljarafe, Sevilla, España
Año Mes Dia Mostrar

  Fecha       hora        Temp.ext.    Hum.ext.  Dir.Viento   Vel.Viento  Presion al NM   T.int. Prec.hoy 

   31-05-2020    19:30      23.9º(-9.8)     53%      112 (E)      4.8 km/h    1011.3 hpa     27.8º    0.0 mm
   31-05-2020    19:25      23.8º(-11.0)     53%      112 (E)      6.4 km/h    1011.2 hpa     27.8º    0.0 mm
   31-05-2020    19:20      23.8º(-10.8)     53%      112 (E)      4.8 km/h    1011.4 hpa     27.8º    0.0 mm
   31-05-2020    19:15      23.7º(-10.9)     53%      112 (E)      6.4 km/h    1011.4 hpa     27.8º    0.0 mm
   31-05-2020    19:10      23.6º(-11.2)     53%      112 (E)      4.8 km/h    1011.4 hpa     27.8º    0.0 mm
   31-05-2020    19:05      23.6º(-11.2)     52%      090 (E)      4.8 km/h    1011.5 hpa     27.8º    0.0 mm
   31-05-2020    19:00      23.4º(-11.3)     53%      112 (E)      6.4 km/h    1011.5 hpa     27.8º    0.0 mm
   31-05-2020    18:55      23.3º(-11.5)     52%      112 (E)      8.0 km/h    1011.6 hpa     27.8º    0.0 mm
   31-05-2020    18:50      23.4º(-12.3)     53%      112 (E)      9.7 km/h    1011.7 hpa     27.8º    0.0 mm
   31-05-2020    18:45      23.3º(-12.4)     53%      090 (E)      9.7 km/h    1011.7 hpa     27.9º    0.0 mm
   31-05-2020    18:40      23.6º(-12.0)     54%      112 (E)      6.4 km/h    1011.7 hpa     27.9º    0.0 mm
   31-05-2020    18:35      23.6º(-11.8)     52%      090 (E)      6.4 km/h    1011.6 hpa     28.1º    0.0 mm
   31-05-2020    18:30      23.7º(-11.6)     53%      067(NE)      4.8 km/h    1011.7 hpa     28.1º    0.0 mm
   31-05-2020    18:25      23.8º(-11.4)     53%      090 (E)      6.4 km/h    1011.7 hpa     28.2º    0.0 mm
   31-05-2020    18:20      23.7º(-11.4)     53%      090 (E)      4.8 km/h    1011.6 hpa     28.2º    0.0 mm
   31-05-2020    18:15      23.4º(-11.8)     53%      135(SE)      4.8 km/h    1011.7 hpa     28.2º    0.0 mm
   31-05-2020    18:10      23.4º(-11.8)     52%      067(NE)      6.4 km/h    1011.8 hpa     28.3º    0.0 mm
   31-05-2020    18:05      23.3º(-11.8)     53%      090 (E)      6.4 km/h    1011.7 hpa     28.4º    0.0 mm
   31-05-2020    18:00      23.3º(-11.8)     52%      090 (E)      6.4 km/h    1011.8 hpa     28.4º    0.0 mm
   31-05-2020    17:55      23.4º(-11.7)     51%      090 (E)      6.4 km/h    1011.8 hpa     28.5º    0.0 mm
   31-05-2020    17:50      23.8º(-11.1)     51%      067(NE)      4.8 km/h    1011.7 hpa     28.5º    0.0 mm
   31-05-2020    17:45      23.7º(-11.4)     51%      180 (S)      3.2 km/h    1011.4 hpa     28.5º    0.0 mm
   31-05-2020    17:40      23.6º(-11.6)     51%      135(SE)      3.2 km/h    1011.5 hpa     28.4º    0.0 mm
   31-05-2020    17:35      23.5º(-11.4)     51%      135(SE)      1.6 km/h    1011.6 hpa     28.4º    0.0 mm
   31-05-2020    17:30      23.3º(-11.4)     52%      135(SE)      3.2 km/h    1011.3 hpa     28.4º    0.0 mm
   31-05-2020    17:25      23.0º(-11.2)     53%      157(SE)      3.2 km/h    1011.3 hpa     28.4º    0.0 mm
   31-05-2020    17:20      22.9º(-11.0)     52%      112 (E)      3.2 km/h    1011.3 hpa     28.4º    0.0 mm
   31-05-2020    17:15      22.8º(-11.3)     52%      202 (S)      3.2 km/h    1011.2 hpa     28.4º    0.0 mm
   31-05-2020    17:10      22.6º(-12.0)     53%      067(NE)      3.2 km/h    1011.1 hpa     28.3º    0.0 mm
   31-05-2020    17:05      22.6º(-12.1)     54%      112 (E)      3.2 km/h    1011.2 hpa     28.3º    0.0 mm
   31-05-2020    17:00      22.4º(-12.3)     56%      135(SE)      3.2 km/h    1011.2 hpa     28.3º    0.0 mm
   31-05-2020    16:55      22.3º(-12.0)     56%      112 (E)      1.6 km/h    1011.2 hpa     28.3º    0.0 mm
   31-05-2020    16:50      22.1º(-11.8)     57%      112 (E)      3.2 km/h    1011.1 hpa     28.3º    0.0 mm
   31-05-2020    16:45      22.2º(-12.1)     56%      112 (E)      4.8 km/h    1011.1 hpa     28.3º    0.0 mm
   31-05-2020    16:40      22.3º(-12.4)     57%      112 (E)      3.2 km/h    1010.9 hpa     28.2º    0.0 mm
   31-05-2020    16:35      22.4º(-12.2)     57%      090 (E)      1.6 km/h    1011.0 hpa     28.2º    0.0 mm
   31-05-2020    16:30      22.4º(-12.2)     57%      112 (E)      4.8 km/h    1011.2 hpa     28.2º    0.0 mm
   31-05-2020    16:25      22.4º(-12.2)     56%      067(NE)      4.8 km/h    1011.4 hpa     28.2º    0.0 mm
   31-05-2020    16:20      22.4º(-12.1)     57%      045(NE)      4.8 km/h    1011.5 hpa     28.2º    0.0 mm
   31-05-2020    16:15      22.5º(-11.6)     56%      202 (S)      6.4 km/h    1011.7 hpa     28.1º    0.0 mm
   31-05-2020    16:10      22.6º(-11.1)     56%      045(NE)      6.4 km/h    1012.0 hpa     28.1º    0.0 mm
   31-05-2020    16:05      22.6º(-10.9)     54%      225(SW)      6.4 km/h    1012.2 hpa     28.1º    0.0 mm
   31-05-2020    16:00      22.7º(-10.6)     53%      045(NE)      8.0 km/h    1012.1 hpa     27.9º    0.0 mm
   31-05-2020    15:55      22.7º(-10.7)     53%      135(SE)      9.7 km/h    1012.1 hpa     27.9º    0.0 mm
   31-05-2020    15:50      22.8º(-10.4)     54%      045(NE)      6.4 km/h    1012.0 hpa     27.9º    0.0 mm
   31-05-2020    15:45      22.9º(-10.0)     53%      022 (N)      8.0 km/h    1011.9 hpa     27.8º    0.0 mm
   31-05-2020    15:40      23.0º(-9.7)     55%      180 (S)      8.0 km/h    1012.0 hpa     27.8º    0.0 mm
   31-05-2020    15:35      23.1º(-9.9)     55%      022 (N)      8.0 km/h    1011.8 hpa     27.8º    0.0 mm
   31-05-2020    15:30      23.2º(-9.6)     55%      090 (E)      8.0 km/h    1011.7 hpa     27.7º    0.0 mm
   31-05-2020    15:25      23.3º(-9.4)     55%      067(NE)      6.4 km/h    1011.5 hpa     27.8º    0.0 mm
   31-05-2020    15:20      23.4º(-9.3)     54%      067(NE)      6.4 km/h    1011.3 hpa     27.8º    0.0 mm
   31-05-2020    15:15      23.6º(-8.7)     54%      202 (S)      8.0 km/h    1011.4 hpa     27.8º    0.0 mm
   31-05-2020    15:10      23.8º(-8.5)     53%      022 (N)      4.8 km/h    1011.3 hpa     27.8º    0.0 mm
   31-05-2020    15:05      23.8º(-8.4)     51%      067(NE)      4.8 km/h    1011.3 hpa     27.8º    0.0 mm
   31-05-2020    15:00      23.8º(-8.3)     50%      090 (E)      4.8 km/h    1011.3 hpa     27.8º    0.0 mm
   31-05-2020    14:55      23.9º(-8.2)     49%      180 (S)      6.4 km/h    1011.4 hpa     27.7º    0.0 mm
   31-05-2020    14:50      23.9º(-8.0)     49%      225(SW)      6.4 km/h    1011.7 hpa     27.7º    0.0 mm
   31-05-2020    14:45      24.1º(-7.7)     49%      202 (S)      6.4 km/h    1011.8 hpa     27.6º    0.0 mm
   31-05-2020    14:40      24.3º(-7.4)     48%      045(NE)      8.0 km/h    1011.9 hpa     27.7º    0.0 mm
   31-05-2020    14:35      24.3º(-7.0)     45%      202 (S)      8.0 km/h    1012.0 hpa     27.7º    0.0 mm
   31-05-2020    14:30      24.3º(-6.9)     44%      225(SW)      9.7 km/h    1012.0 hpa     27.7º    0.0 mm
   31-05-2020    14:25      24.3º(-6.7)     43%      225(SW)     11.3 km/h    1012.2 hpa     27.7º    0.0 mm
   31-05-2020    14:20      24.2º(-6.9)     42%      225(SW)      8.0 km/h    1012.1 hpa     27.8º    0.0 mm
   31-05-2020    14:15      23.9º(-7.0)     42%      247(SW)      9.7 km/h    1012.2 hpa     27.8º    0.0 mm
   31-05-2020    14:10      23.6º(-7.2)     44%      225(SW)      9.7 km/h    1012.1 hpa     27.8º    0.0 mm
   31-05-2020    14:05      23.3º(-7.7)     48%      270 (W)      8.0 km/h    1012.0 hpa     27.8º    0.0 mm
   31-05-2020    14:00      23.1º(-7.8)     49%      247(SW)      9.7 km/h    1012.0 hpa     27.8º    0.0 mm
   31-05-2020    13:55      23.1º(-7.3)     50%      247(SW)      6.4 km/h    1012.0 hpa     27.9º    0.0 mm
   31-05-2020    13:50      23.1º(-7.1)     51%      270 (W)      8.0 km/h    1011.9 hpa     27.9º    0.0 mm
   31-05-2020    13:45      23.2º(-7.1)     51%      202 (S)      6.4 km/h    1011.7 hpa     27.9º    0.0 mm
   31-05-2020    13:40      23.3º(-6.9)     49%      270 (W)      8.0 km/h    1011.4 hpa     28.1º    0.0 mm
   31-05-2020    13:35      23.4º(-6.9)     48%      247(SW)      9.7 km/h    1011.3 hpa     28.1º    0.0 mm
   31-05-2020    13:30      23.7º(-6.6)     48%      247(SW)      8.0 km/h    1011.2 hpa     28.1º    0.0 mm
   31-05-2020    13:25      24.0º(-6.2)     46%      247(SW)      9.7 km/h    1011.1 hpa     28.1º    0.0 mm
   31-05-2020    13:20      24.4º(-5.2)     43%      225(SW)      6.4 km/h    1010.9 hpa     28.2º    0.0 mm
   31-05-2020    13:15      24.6º(-4.6)     41%      225(SW)      3.2 km/h    1011.0 hpa     28.2º    0.0 mm
   31-05-2020    13:10      24.5º(-4.6)     39%      247(SW)      3.2 km/h    1010.8 hpa     28.1º    0.0 mm
   31-05-2020    13:05      24.6º(-4.3)     39%      247(SW)      4.8 km/h    1010.7 hpa     28.1º    0.0 mm
   31-05-2020    13:00      24.7º(-4.0)     39%      202 (S)      3.2 km/h    1010.7 hpa     28.2º    0.0 mm
   31-05-2020    12:55      24.7º(-4.2)     37%      292 (W)      3.2 km/h    1010.7 hpa     28.2º    0.0 mm
   31-05-2020    12:50      24.8º(-4.1)     36%      292 (W)      3.2 km/h    1010.7 hpa     28.2º    0.0 mm
   31-05-2020    12:45      24.8º(-3.8)     35%      292 (W)      1.6 km/h    1010.8 hpa     28.2º    0.0 mm
   31-05-2020    12:40      24.8º(-3.5)     34%      292 (W)      3.2 km/h    1010.7 hpa     28.2º    0.0 mm
   31-05-2020    12:35      24.9º(-3.2)     33%      292 (W)      1.6 km/h    1010.7 hpa     28.2º    0.0 mm
   31-05-2020    12:30      24.9º(-3.3)     33%      292 (W)      1.6 km/h    1010.5 hpa     28.2º    0.0 mm
   31-05-2020    12:25      25.0º(-2.8)     32%      292 (W)      3.2 km/h    1010.7 hpa     28.2º    0.0 mm
   31-05-2020    12:20      25.1º(-2.5)     33%      292 (W)      3.2 km/h    1010.7 hpa     28.2º    0.0 mm
   31-05-2020    12:15      25.2º(-2.5)     32%      292 (W)      3.2 km/h    1010.7 hpa     28.2º    0.0 mm
   31-05-2020    12:10      25.3º(-2.4)     31%      292 (W)      3.2 km/h    1010.7 hpa     28.2º    0.0 mm
   31-05-2020    12:05      25.4º(-2.3)     31%      292 (W)      3.2 km/h    1010.7 hpa     28.2º    0.0 mm
   31-05-2020    12:00      25.4º(-2.1)     32%      292 (W)      3.2 km/h    1010.6 hpa     28.1º    0.0 mm
   31-05-2020    11:55      25.6º(-1.7)     32%      067(NE)      3.2 km/h    1010.5 hpa     28.1º    0.0 mm
   31-05-2020    11:50      25.7º(-1.2)     32%      067(NE)      1.6 km/h    1010.4 hpa     28.1º    0.0 mm
   31-05-2020    11:45      25.6º(-1.2)     32%         -         0.0 km/h    1010.5 hpa     27.9º    0.0 mm
   31-05-2020    11:40      25.3º(-1.5)     33%      067(NE)      1.6 km/h    1010.5 hpa     27.9º    0.0 mm
   31-05-2020    11:35      25.2º(-1.4)     33%         -         0.0 km/h    1010.5 hpa     27.9º    0.0 mm
   31-05-2020    11:30      24.8º(-1.7)     34%         -         0.0 km/h    1010.5 hpa     27.9º    0.0 mm
   31-05-2020    11:25      24.4º(-2.2)     34%      067(NE)      1.6 km/h    1010.6 hpa     27.9º    0.0 mm
   31-05-2020    11:20      24.2º(-2.2)     34%      067(NE)      1.6 km/h    1010.7 hpa     27.9º    0.0 mm
   31-05-2020    11:15      24.2º(-2.0)     34%      067(NE)      1.6 km/h    1010.7 hpa     27.9º    0.0 mm
   31-05-2020    11:10      24.0º(-1.8)     36%      090 (E)      1.6 km/h    1010.8 hpa     27.8º    0.0 mm
   31-05-2020    11:05      23.9º(-1.6)     36%      090 (E)      1.6 km/h    1010.8 hpa     27.8º    0.0 mm
   31-05-2020    11:00      23.7º(-1.6)     38%         -         0.0 km/h    1010.7 hpa     27.8º    0.0 mm
   31-05-2020    10:55      23.6º(-1.6)     39%      090 (E)      1.6 km/h    1010.7 hpa     27.8º    0.0 mm
   31-05-2020    10:50      23.5º(-1.5)     39%      090 (E)      3.2 km/h    1010.7 hpa     27.8º    0.0 mm
   31-05-2020    10:45      23.3º(-1.5)     39%         -         0.0 km/h    1010.6 hpa     27.7º    0.0 mm
   31-05-2020    10:40      23.1º(-1.5)     40%         -         0.0 km/h    1010.7 hpa     27.7º    0.0 mm
   31-05-2020    10:35      22.7º(-1.7)     41%      090 (E)      1.6 km/h    1010.7 hpa     27.6º    0.0 mm
   31-05-2020    10:30      22.4º(-2.0)     41%      090 (E)      1.6 km/h    1010.7 hpa     27.6º    0.0 mm
   31-05-2020    10:25      22.2º(-2.2)     41%         -         0.0 km/h    1010.7 hpa     27.4º    0.0 mm
   31-05-2020    10:20      21.9º(-2.3)     40%      090 (E)      3.2 km/h    1010.7 hpa     27.4º    0.0 mm
   31-05-2020    10:15      21.9º(-2.2)     42%      090 (E)      1.6 km/h    1010.7 hpa     27.4º    0.0 mm
   31-05-2020    10:10      21.8º(-2.3)     42%      090 (E)      3.2 km/h    1010.7 hpa     27.4º    0.0 mm
   31-05-2020    10:05      21.8º(-1.9)     39%      067(NE)      4.8 km/h    1010.7 hpa     27.6º    0.0 mm
   31-05-2020    10:00      21.8º(-1.8)     40%      022 (N)      1.6 km/h    1010.6 hpa     27.6º    0.0 mm
   31-05-2020    09:55      21.8º(-1.6)     41%      022 (N)      3.2 km/h    1010.5 hpa     27.6º    0.0 mm
   31-05-2020    09:50      21.8º(-1.7)     40%      022 (N)      3.2 km/h    1010.4 hpa     27.6º    0.0 mm
   31-05-2020    09:45      21.7º(-1.8)     42%      022 (N)      3.2 km/h    1010.4 hpa     27.6º    0.0 mm
   31-05-2020    09:40      21.7º(-1.4)     41%      022 (N)      1.6 km/h    1010.3 hpa     27.6º    0.0 mm
   31-05-2020    09:35      21.6º(-1.2)     41%      022 (N)      3.2 km/h    1010.1 hpa     27.6º    0.0 mm
   31-05-2020    09:30      21.6º(-1.0)     43%      045(NE)      3.2 km/h    1010.1 hpa     27.6º    0.0 mm
   31-05-2020    09:25      21.6º(-0.8)     42%      045(NE)      3.2 km/h    1010.1 hpa     27.6º    0.0 mm
   31-05-2020    09:20      21.6º(-0.5)     42%      045(NE)      3.2 km/h    1010.1 hpa     27.6º    0.0 mm
   31-05-2020    09:15      21.6º(-0.2)     43%      045(NE)      1.6 km/h    1010.1 hpa     27.4º    0.0 mm
   31-05-2020    09:10      21.5º(-0.1)     43%      045(NE)      1.6 km/h    1010.0 hpa     27.4º    0.0 mm
   31-05-2020    09:05      21.4º(-0.0)     43%      045(NE)      1.6 km/h    1010.0 hpa     27.4º    0.0 mm
   31-05-2020    09:00      21.3º(-0.1)     43%      045(NE)      3.2 km/h    1010.0 hpa     27.4º    0.0 mm
   31-05-2020    08:55      21.4º(+0.2)     43%      045(NE)      3.2 km/h    1010.0 hpa     27.4º    0.0 mm
   31-05-2020    08:50      21.4º(+0.5)     43%      067(NE)      3.2 km/h    1009.9 hpa     27.4º    0.0 mm
   31-05-2020    08:45      21.4º(+0.7)     44%      067(NE)      1.6 km/h    1009.9 hpa     27.4º    0.0 mm
   31-05-2020    08:40      21.3º(+0.7)     45%      067(NE)      1.6 km/h    1010.0 hpa     27.4º    0.0 mm
   31-05-2020    08:35      21.3º(+0.8)     44%      067(NE)      1.6 km/h    1009.9 hpa     27.4º    0.0 mm
   31-05-2020    08:30      21.2º(+0.6)     44%      045(NE)      3.2 km/h    1009.7 hpa     27.4º    0.0 mm
   31-05-2020    08:25      21.2º(+0.6)     44%      067(NE)      3.2 km/h    1009.7 hpa     27.4º    0.0 mm
   31-05-2020    08:20      21.2º(+0.5)     44%      067(NE)      4.8 km/h    1009.5 hpa     27.4º    0.0 mm
   31-05-2020    08:15      21.2º(+0.4)     43%      022 (N)      4.8 km/h    1009.4 hpa     27.4º    0.0 mm
   31-05-2020    08:10      21.1º(+0.4)     43%      045(NE)      4.8 km/h    1009.3 hpa     27.4º    0.0 mm
   31-05-2020    08:05      21.1º(+0.4)     42%      045(NE)      6.4 km/h    1009.3 hpa     27.6º    0.0 mm
   31-05-2020    08:00      21.1º(+0.4)     42%      045(NE)      4.8 km/h    1009.2 hpa     27.4º    0.0 mm
   31-05-2020    07:55      21.1º(+0.5)     42%      045(NE)      4.8 km/h    1009.3 hpa     27.4º    0.0 mm
   31-05-2020    07:50      21.1º(+0.5)     42%      045(NE)      4.8 km/h    1009.4 hpa     27.6º    0.0 mm
   31-05-2020    07:45      21.2º(+0.8)     41%      022 (N)      4.8 km/h    1009.3 hpa     27.6º    0.0 mm
   31-05-2020    07:40      21.2º(+0.8)     42%      022 (N)      4.8 km/h    1009.4 hpa     27.6º    0.0 mm
   31-05-2020    07:35      21.2º(+0.9)     42%      045(NE)      3.2 km/h    1009.5 hpa     27.6º    0.0 mm
   31-05-2020    07:30      21.2º(+0.9)     43%      045(NE)      3.2 km/h    1009.4 hpa     27.6º    0.0 mm
   31-05-2020    07:25      21.2º(+0.9)     43%      045(NE)      3.2 km/h    1009.4 hpa     27.6º    0.0 mm
   31-05-2020    07:20      21.2º(+0.9)     44%      045(NE)      3.2 km/h    1009.5 hpa     27.6º    0.0 mm
   31-05-2020    07:15      21.2º(+0.9)     44%      045(NE)      3.2 km/h    1009.3 hpa     27.7º    0.0 mm
   31-05-2020    07:10      21.3º(+1.0)     45%      022 (N)      3.2 km/h    1009.3 hpa     27.7º    0.0 mm
   31-05-2020    07:05      21.3º(+0.9)     44%      045(NE)      3.2 km/h    1009.2 hpa     27.7º    0.0 mm
   31-05-2020    07:00      21.3º(+0.9)     44%      045(NE)      4.8 km/h    1009.3 hpa     27.7º    0.0 mm
   31-05-2020    06:55      21.3º(+0.9)     44%      045(NE)      4.8 km/h    1009.3 hpa     27.7º    0.0 mm
   31-05-2020    06:50      21.3º(+0.9)     45%      045(NE)      4.8 km/h    1009.3 hpa     27.8º    0.0 mm
   31-05-2020    06:45      21.3º(+0.8)     49%      045(NE)      3.2 km/h    1009.4 hpa     27.8º    0.0 mm
   31-05-2020    06:40      21.3º(+0.7)     52%      022 (N)      1.6 km/h    1009.5 hpa     27.8º    0.0 mm
   31-05-2020    06:35      21.3º(+0.7)     53%      022 (N)      3.2 km/h    1009.4 hpa     27.8º    0.0 mm
   31-05-2020    06:30      21.3º(+0.7)     55%      022 (N)      1.6 km/h    1009.4 hpa     27.8º    0.0 mm
   31-05-2020    06:25      21.2º(+0.6)     56%      022 (N)      1.6 km/h    1009.3 hpa     27.8º    0.0 mm
   31-05-2020    06:20      21.2º(+0.6)     56%      022 (N)      1.6 km/h    1009.2 hpa     27.8º    0.0 mm
   31-05-2020    06:15      21.2º(+0.6)     55%      022 (N)      1.6 km/h    1009.3 hpa     27.8º    0.0 mm
   31-05-2020    06:10      21.2º(+0.7)     55%      022 (N)      1.6 km/h    1009.2 hpa     27.8º    0.0 mm
   31-05-2020    06:05      21.2º(+0.8)     54%      022 (N)      3.2 km/h    1009.3 hpa     27.8º    0.0 mm
   31-05-2020    06:00      21.2º(+0.8)     54%      022 (N)      4.8 km/h    1009.4 hpa     27.8º    0.0 mm
   31-05-2020    05:55      21.3º(+0.9)     53%      022 (N)      3.2 km/h    1009.3 hpa     27.8º    0.0 mm
   31-05-2020    05:50      21.4º(+1.0)     53%      022 (N)      3.2 km/h    1009.5 hpa     27.8º    0.0 mm
   31-05-2020    05:45      21.6º(+1.3)     53%      022 (N)      3.2 km/h    1009.4 hpa     27.8º    0.0 mm
   31-05-2020    05:40      21.7º(+1.4)     52%      022 (N)      3.2 km/h    1009.3 hpa     27.8º    0.0 mm
   31-05-2020    05:35      21.9º(+1.6)     51%      022 (N)      1.6 km/h    1009.4 hpa     27.8º    0.0 mm
   31-05-2020    05:30      22.0º(+1.7)     51%      022 (N)      1.6 km/h    1009.3 hpa     27.8º    0.0 mm
   31-05-2020    05:25      22.1º(+1.8)     50%         -         0.0 km/h    1009.3 hpa     27.8º    0.0 mm
   31-05-2020    05:20      22.1º(+1.8)     50%      022 (N)      1.6 km/h    1009.2 hpa     27.8º    0.0 mm
   31-05-2020    05:15      22.2º(+1.9)     50%      000 (N)      1.6 km/h    1009.2 hpa     27.8º    0.0 mm
   31-05-2020    05:10      22.1º(+1.8)     50%      000 (N)      1.6 km/h    1009.1 hpa     27.8º    0.0 mm
   31-05-2020    05:05      22.2º(+2.0)     50%      000 (N)      1.6 km/h    1009.2 hpa     27.8º    0.0 mm
   31-05-2020    05:00      22.2º(+2.0)     50%      000 (N)      1.6 km/h    1009.3 hpa     27.8º    0.0 mm
   31-05-2020    04:55      22.2º(+2.0)     50%      000 (N)      3.2 km/h    1009.3 hpa     27.8º    0.0 mm
   31-05-2020    04:50      22.2º(+1.9)     50%      000 (N)      4.8 km/h    1009.4 hpa     27.8º    0.0 mm
   31-05-2020    04:45      22.1º(+1.8)     50%      022 (N)      4.8 km/h    1009.3 hpa     27.9º    0.0 mm
   31-05-2020    04:40      22.1º(+1.8)     50%      022 (N)      4.8 km/h    1009.4 hpa     27.9º    0.0 mm
   31-05-2020    04:35      22.1º(+1.8)     51%      022 (N)      3.2 km/h    1009.4 hpa     27.9º    0.0 mm
   31-05-2020    04:30      22.1º(+1.8)     51%      022 (N)      3.2 km/h    1009.3 hpa     27.9º    0.0 mm
   31-05-2020    04:25      22.1º(+1.7)     52%      022 (N)      1.6 km/h    1009.3 hpa     27.9º    0.0 mm
   31-05-2020    04:20      22.0º(+1.6)     52%      000 (N)      4.8 km/h    1009.3 hpa     27.9º    0.0 mm
   31-05-2020    04:15      22.0º(+1.6)     52%      000 (N)      4.8 km/h    1009.3 hpa     27.9º    0.0 mm
   31-05-2020    04:10      21.9º(+1.6)     52%      337(NW)      4.8 km/h    1009.4 hpa     27.9º    0.0 mm
   31-05-2020    04:05      21.9º(+1.6)     53%      000 (N)      6.4 km/h    1009.3 hpa     27.9º    0.0 mm
   31-05-2020    04:00      21.9º(+1.6)     53%      337(NW)      8.0 km/h    1009.5 hpa     27.9º    0.0 mm
   31-05-2020    03:55      22.0º(+1.7)     53%      337(NW)      8.0 km/h    1009.6 hpa     28.1º    0.0 mm
   31-05-2020    03:50      22.1º(+1.8)     52%      337(NW)      6.4 km/h    1009.7 hpa     28.1º    0.0 mm
   31-05-2020    03:45      22.1º(+1.8)     52%      337(NW)      6.4 km/h    1009.7 hpa     28.1º    0.0 mm
   31-05-2020    03:40      22.1º(+1.8)     53%      337(NW)      8.0 km/h    1009.7 hpa     28.1º    0.0 mm
   31-05-2020    03:35      22.2º(+1.8)     52%      000 (N)      6.4 km/h    1009.7 hpa     28.1º    0.0 mm
   31-05-2020    03:30      22.2º(+1.8)     52%      337(NW)      6.4 km/h    1009.7 hpa     28.1º    0.0 mm
   31-05-2020    03:25      22.3º(+1.8)     52%      000 (N)      8.0 km/h    1009.9 hpa     28.1º    0.0 mm
   31-05-2020    03:20      22.3º(+1.7)     52%      000 (N)      6.4 km/h    1009.9 hpa     28.1º    0.0 mm
   31-05-2020    03:15      22.4º(+1.8)     52%      337(NW)      6.4 km/h    1010.0 hpa     28.1º    0.0 mm
   31-05-2020    03:10      22.5º(+1.9)     51%      337(NW)      4.8 km/h    1010.1 hpa     28.2º    0.0 mm
   31-05-2020    03:05      22.6º(+2.0)     51%      337(NW)      3.2 km/h    1010.3 hpa     28.2º    0.0 mm
   31-05-2020    03:00      22.6º(+2.0)     51%      337(NW)      4.8 km/h    1010.2 hpa     28.2º    0.0 mm
   31-05-2020    02:55      22.6º(+1.9)     52%      000 (N)      3.2 km/h    1010.2 hpa     28.2º    0.0 mm
   31-05-2020    02:50      22.6º(+1.9)     52%      000 (N)      4.8 km/h    1010.2 hpa     28.2º    0.0 mm
   31-05-2020    02:45      22.6º(+1.9)     52%      000 (N)      3.2 km/h    1010.3 hpa     28.2º    0.0 mm
   31-05-2020    02:40      22.6º(+1.9)     52%      000 (N)      3.2 km/h    1010.3 hpa     28.2º    0.0 mm
   31-05-2020    02:35      22.6º(+1.9)     52%      292 (W)      3.2 km/h    1010.4 hpa     28.2º    0.0 mm
   31-05-2020    02:30      22.7º(+1.9)     52%      337(NW)      3.2 km/h    1010.6 hpa     28.2º    0.0 mm
   31-05-2020    02:25      22.7º(+1.9)     52%      337(NW)      1.6 km/h    1010.7 hpa     28.2º    0.0 mm
   31-05-2020    02:20      22.7º(+1.9)     52%      315(NW)      3.2 km/h    1010.7 hpa     28.2º    0.0 mm
   31-05-2020    02:15      22.7º(+1.9)     52%      337(NW)      4.8 km/h    1010.6 hpa     28.2º    0.0 mm
   31-05-2020    02:10      22.8º(+1.9)     53%      315(NW)      3.2 km/h    1010.6 hpa     28.2º    0.0 mm
   31-05-2020    02:05      22.9º(+1.9)     53%      315(NW)      4.8 km/h    1010.5 hpa     28.2º    0.0 mm
   31-05-2020    02:00      23.1º(+2.1)     52%      315(NW)      3.2 km/h    1010.6 hpa     28.2º    0.0 mm
   31-05-2020    01:55      23.1º(----)     52%      315(NW)      1.6 km/h    1010.6 hpa     28.2º    0.0 mm
   31-05-2020    01:50      23.1º(----)     53%      315(NW)      1.6 km/h    1010.6 hpa     28.3º    0.0 mm
   31-05-2020    01:45      23.1º(----)     52%      315(NW)      3.2 km/h    1010.7 hpa     28.3º    0.0 mm
   31-05-2020    01:40      23.1º(----)     53%      292 (W)      3.2 km/h    1010.6 hpa     28.3º    0.0 mm
   31-05-2020    01:35      23.1º(----)     53%      292 (W)      3.2 km/h    1010.8 hpa     28.3º    0.0 mm
   31-05-2020    01:30      23.1º(----)     52%      315(NW)      3.2 km/h    1010.9 hpa     28.3º    0.0 mm
   31-05-2020    01:25      23.1º(----)     52%      315(NW)      1.6 km/h    1010.9 hpa     28.3º    0.0 mm
   31-05-2020    01:20      23.1º(----)     52%      315(NW)      1.6 km/h    1010.8 hpa     28.3º    0.0 mm
   31-05-2020    01:15      23.1º(----)     52%      315(NW)      3.2 km/h    1010.8 hpa     28.3º    0.0 mm
   31-05-2020    01:10      23.2º(----)     51%      270 (W)      3.2 km/h    1010.8 hpa     28.3º    0.0 mm
   31-05-2020    01:05      23.2º(----)     51%      270 (W)      3.2 km/h    1010.9 hpa     28.3º    0.0 mm
   31-05-2020    01:00      23.3º(----)     51%      270 (W)      3.2 km/h    1010.9 hpa     28.3º    0.0 mm
   31-05-2020    00:55      23.3º(----)     51%      270 (W)      3.2 km/h    1010.9 hpa     28.3º    0.0 mm
   31-05-2020    00:50      23.3º(----)     51%      270 (W)      3.2 km/h    1010.8 hpa     28.3º    0.0 mm
   31-05-2020    00:45      23.3º(----)     50%      270 (W)      3.2 km/h    1010.8 hpa     28.2º    0.0 mm
   31-05-2020    00:40      23.3º(----)     50%      270 (W)      3.2 km/h    1010.8 hpa     28.2º    0.0 mm
   31-05-2020    00:35      23.4º(----)     50%      270 (W)      4.8 km/h    1010.8 hpa     28.2º    0.0 mm
   31-05-2020    00:30      23.7º(----)     49%      270 (W)      6.4 km/h    1010.7 hpa     28.2º    0.0 mm
   31-05-2020    00:25      23.9º(----)     48%      247(SW)      3.2 km/h    1010.7 hpa     28.2º    0.0 mm
   31-05-2020    00:20      24.1º(----)     48%      247(SW)      3.2 km/h    1010.6 hpa     28.2º    0.0 mm
   31-05-2020    00:15      24.2º(----)     47%      247(SW)      1.6 km/h    1010.7 hpa     28.1º    0.0 mm
   31-05-2020    00:10      24.2º(----)     47%      247(SW)      3.2 km/h    1010.8 hpa     28.1º    0.0 mm
   31-05-2020    00:05      24.3º(----)     47%      247(SW)      3.2 km/h    1010.7 hpa     28.1º    0.0 mm
   31-05-2020    00:00      24.4º(----)     46%      247(SW)      6.4 km/h    1010.7 hpa     28.1º    0.0 mm